sensor_id;sensor_type;location;lat;lon;timestamp;P1;durP1;ratioP1;P2;durP2;ratioP2
39918;SDS011;25589;51.552;13.424;2023-05-10T00:01:55;4.90;;;3.65;;
39918;SDS011;25589;51.552;13.424;2023-05-10T00:04:21;6.68;;;3.65;;
39918;SDS011;25589;51.552;13.424;2023-05-10T00:06:46;3.70;;;2.90;;
39918;SDS011;25589;51.552;13.424;2023-05-10T00:09:12;5.45;;;4.05;;
39918;SDS011;25589;51.552;13.424;2023-05-10T00:11:38;4.50;;;3.33;;
39918;SDS011;25589;51.552;13.424;2023-05-10T00:14:04;4.18;;;2.95;;
39918;SDS011;25589;51.552;13.424;2023-05-10T00:16:29;5.32;;;3.20;;
39918;SDS011;25589;51.552;13.424;2023-05-10T00:18:55;4.90;;;3.38;;
39918;SDS011;25589;51.552;13.424;2023-05-10T00:21:20;4.25;;;3.25;;
39918;SDS011;25589;51.552;13.424;2023-05-10T00:23:46;4.35;;;3.20;;
39918;SDS011;25589;51.552;13.424;2023-05-10T00:26:11;4.93;;;3.08;;
39918;SDS011;25589;51.552;13.424;2023-05-10T00:28:39;3.80;;;2.90;;
39918;SDS011;25589;51.552;13.424;2023-05-10T00:31:05;3.60;;;2.70;;
39918;SDS011;25589;51.552;13.424;2023-05-10T00:33:30;5.55;;;3.25;;
39918;SDS011;25589;51.552;13.424;2023-05-10T00:35:56;4.45;;;2.90;;
39918;SDS011;25589;51.552;13.424;2023-05-10T00:38:21;5.60;;;3.50;;
39918;SDS011;25589;51.552;13.424;2023-05-10T00:40:47;3.80;;;3.08;;
39918;SDS011;25589;51.552;13.424;2023-05-10T00:43:21;4.63;;;3.42;;
39918;SDS011;25589;51.552;13.424;2023-05-10T00:45:47;4.82;;;3.30;;
39918;SDS011;25589;51.552;13.424;2023-05-10T00:48:12;3.83;;;3.17;;
39918;SDS011;25589;51.552;13.424;2023-05-10T00:50:38;5.07;;;3.00;;
39918;SDS011;25589;51.552;13.424;2023-05-10T00:53:05;5.82;;;3.03;;
39918;SDS011;25589;51.552;13.424;2023-05-10T00:55:31;3.70;;;3.00;;
39918;SDS011;25589;51.552;13.424;2023-05-10T00:57:56;5.88;;;3.35;;
39918;SDS011;25589;51.552;13.424;2023-05-10T01:00:22;3.67;;;2.83;;
39918;SDS011;25589;51.552;13.424;2023-05-10T01:02:49;6.13;;;3.05;;
39918;SDS011;25589;51.552;13.424;2023-05-10T01:05:15;4.78;;;3.20;;
39918;SDS011;25589;51.552;13.424;2023-05-10T01:07:40;7.15;;;3.60;;
39918;SDS011;25589;51.552;13.424;2023-05-10T01:10:06;4.65;;;3.03;;
39918;SDS011;25589;51.552;13.424;2023-05-10T01:12:37;5.43;;;3.10;;
39918;SDS011;25589;51.552;13.424;2023-05-10T01:15:05;5.38;;;3.22;;
39918;SDS011;25589;51.552;13.424;2023-05-10T01:17:32;5.10;;;3.47;;
39918;SDS011;25589;51.552;13.424;2023-05-10T01:19:59;3.90;;;3.35;;
39918;SDS011;25589;51.552;13.424;2023-05-10T01:25:43;5.22;;;3.50;;
39918;SDS011;25589;51.552;13.424;2023-05-10T01:36:34;3.20;;;2.85;;
39918;SDS011;25589;51.552;13.424;2023-05-10T01:39:17;5.60;;;3.10;;
39918;SDS011;25589;51.552;13.424;2023-05-10T01:41:54;5.55;;;3.55;;
39918;SDS011;25589;51.552;13.424;2023-05-10T01:44:34;6.55;;;3.65;;
39918;SDS011;25589;51.552;13.424;2023-05-10T01:47:11;4.55;;;3.40;;
39918;SDS011;25589;51.552;13.424;2023-05-10T01:49:45;4.07;;;3.30;;
39918;SDS011;25589;51.552;13.424;2023-05-10T01:52:15;4.57;;;3.20;;
39918;SDS011;25589;51.552;13.424;2023-05-10T01:54:50;3.95;;;3.13;;
39918;SDS011;25589;51.552;13.424;2023-05-10T01:57:26;3.80;;;3.22;;
39918;SDS011;25589;51.552;13.424;2023-05-10T01:59:56;4.00;;;3.42;;
39918;SDS011;25589;51.552;13.424;2023-05-10T02:02:24;4.75;;;3.45;;
39918;SDS011;25589;51.552;13.424;2023-05-10T02:04:51;5.00;;;3.33;;
39918;SDS011;25589;51.552;13.424;2023-05-10T02:07:19;4.13;;;3.58;;
39918;SDS011;25589;51.552;13.424;2023-05-10T02:09:46;4.88;;;3.35;;
39918;SDS011;25589;51.552;13.424;2023-05-10T02:12:13;4.57;;;3.03;;
39918;SDS011;25589;51.552;13.424;2023-05-10T02:14:40;6.38;;;3.35;;
39918;SDS011;25589;51.552;13.424;2023-05-10T02:17:07;5.13;;;3.30;;
39918;SDS011;25589;51.552;13.424;2023-05-10T02:19:34;3.42;;;3.00;;
39918;SDS011;25589;51.552;13.424;2023-05-10T02:22:02;3.72;;;2.85;;
39918;SDS011;25589;51.552;13.424;2023-05-10T02:24:28;4.43;;;3.08;;
39918;SDS011;25589;51.552;13.424;2023-05-10T02:26:55;4.75;;;2.92;;
39918;SDS011;25589;51.552;13.424;2023-05-10T02:29:22;4.95;;;3.40;;
39918;SDS011;25589;51.552;13.424;2023-05-10T02:31:51;4.10;;;3.05;;
39918;SDS011;25589;51.552;13.424;2023-05-10T02:34:19;3.83;;;3.08;;
39918;SDS011;25589;51.552;13.424;2023-05-10T02:36:46;3.92;;;2.97;;
39918;SDS011;25589;51.552;13.424;2023-05-10T02:39:13;5.00;;;2.88;;
39918;SDS011;25589;51.552;13.424;2023-05-10T02:41:40;5.50;;;3.58;;
39918;SDS011;25589;51.552;13.424;2023-05-10T02:44:07;4.22;;;3.22;;
39918;SDS011;25589;51.552;13.424;2023-05-10T02:46:34;4.70;;;3.33;;
39918;SDS011;25589;51.552;13.424;2023-05-10T02:49:01;4.57;;;2.85;;
39918;SDS011;25589;51.552;13.424;2023-05-10T02:51:28;4.93;;;3.00;;
39918;SDS011;25589;51.552;13.424;2023-05-10T02:53:56;5.10;;;3.05;;
39918;SDS011;25589;51.552;13.424;2023-05-10T02:56:31;3.70;;;2.60;;
39918;SDS011;25589;51.552;13.424;2023-05-10T02:59:00;5.18;;;2.90;;
39918;SDS011;25589;51.552;13.424;2023-05-10T03:01:25;4.05;;;3.10;;
39918;SDS011;25589;51.552;13.424;2023-05-10T03:03:51;4.57;;;2.92;;
39918;SDS011;25589;51.552;13.424;2023-05-10T03:06:17;5.70;;;2.90;;
39918;SDS011;25589;51.552;13.424;2023-05-10T03:08:43;3.92;;;2.95;;
39918;SDS011;25589;51.552;13.424;2023-05-10T03:17:29;5.25;;;3.22;;
39918;SDS011;25589;51.552;13.424;2023-05-10T03:19:56;4.80;;;2.80;;
39918;SDS011;25589;51.552;13.424;2023-05-10T03:22:25;3.47;;;3.10;;
39918;SDS011;25589;51.552;13.424;2023-05-10T03:24:55;6.57;;;2.80;;
39918;SDS011;25589;51.552;13.424;2023-05-10T03:27:24;4.10;;;2.80;;
39918;SDS011;25589;51.552;13.424;2023-05-10T03:29:53;3.83;;;2.70;;
39918;SDS011;25589;51.552;13.424;2023-05-10T03:32:20;5.18;;;2.65;;
39918;SDS011;25589;51.552;13.424;2023-05-10T03:34:47;4.03;;;3.22;;
39918;SDS011;25589;51.552;13.424;2023-05-10T03:37:13;4.75;;;3.08;;
39918;SDS011;25589;51.552;13.424;2023-05-10T03:39:39;4.75;;;2.55;;
39918;SDS011;25589;51.552;13.424;2023-05-10T03:42:07;2.60;;;2.28;;
39918;SDS011;25589;51.552;13.424;2023-05-10T03:44:32;5.28;;;2.55;;
39918;SDS011;25589;51.552;13.424;2023-05-10T03:46:58;8.38;;;3.22;;
39918;SDS011;25589;51.552;13.424;2023-05-10T03:49:24;3.10;;;2.80;;
39918;SDS011;25589;51.552;13.424;2023-05-10T03:51:50;2.75;;;2.55;;
39918;SDS011;25589;51.552;13.424;2023-05-10T03:54:16;4.05;;;2.55;;
39918;SDS011;25589;51.552;13.424;2023-05-10T03:56:41;3.78;;;3.10;;
39918;SDS011;25589;51.552;13.424;2023-05-10T03:59:07;3.47;;;2.63;;
39918;SDS011;25589;51.552;13.424;2023-05-10T04:01:34;4.05;;;3.17;;
39918;SDS011;25589;51.552;13.424;2023-05-10T04:04:00;3.28;;;2.58;;
39918;SDS011;25589;51.552;13.424;2023-05-10T04:06:25;3.25;;;2.90;;
39918;SDS011;25589;51.552;13.424;2023-05-10T04:08:51;4.20;;;3.22;;
39918;SDS011;25589;51.552;13.424;2023-05-10T04:11:16;4.63;;;2.90;;
39918;SDS011;25589;51.552;13.424;2023-05-10T04:13:42;4.20;;;2.60;;
39918;SDS011;25589;51.552;13.424;2023-05-10T04:16:08;2.70;;;2.33;;
39918;SDS011;25589;51.552;13.424;2023-05-10T04:18:34;3.53;;;2.78;;
39918;SDS011;25589;51.552;13.424;2023-05-10T04:20:59;4.78;;;2.80;;
39918;SDS011;25589;51.552;13.424;2023-05-10T04:23:26;4.10;;;3.03;;
39918;SDS011;25589;51.552;13.424;2023-05-10T04:25:52;3.33;;;2.53;;
39918;SDS011;25589;51.552;13.424;2023-05-10T04:28:17;3.53;;;2.90;;
39918;SDS011;25589;51.552;13.424;2023-05-10T04:30:43;6.13;;;2.75;;
39918;SDS011;25589;51.552;13.424;2023-05-10T04:33:08;2.83;;;2.30;;
39918;SDS011;25589;51.552;13.424;2023-05-10T04:35:34;5.32;;;3.33;;
39918;SDS011;25589;51.552;13.424;2023-05-10T04:38:00;8.40;;;3.05;;
39918;SDS011;25589;51.552;13.424;2023-05-10T04:40:26;4.25;;;2.50;;
39918;SDS011;25589;51.552;13.424;2023-05-10T04:42:51;3.78;;;2.97;;
39918;SDS011;25589;51.552;13.424;2023-05-10T04:45:17;4.00;;;2.80;;
39918;SDS011;25589;51.552;13.424;2023-05-10T04:47:42;4.03;;;2.55;;
39918;SDS011;25589;51.552;13.424;2023-05-10T04:50:08;2.42;;;2.22;;
39918;SDS011;25589;51.552;13.424;2023-05-10T04:52:33;2.97;;;2.25;;
39918;SDS011;25589;51.552;13.424;2023-05-10T04:54:59;4.70;;;2.33;;
39918;SDS011;25589;51.552;13.424;2023-05-10T04:57:25;4.55;;;2.70;;
39918;SDS011;25589;51.552;13.424;2023-05-10T04:59:50;2.55;;;2.28;;
39918;SDS011;25589;51.552;13.424;2023-05-10T05:02:16;3.55;;;2.78;;
39918;SDS011;25589;51.552;13.424;2023-05-10T05:04:41;3.05;;;2.53;;
39918;SDS011;25589;51.552;13.424;2023-05-10T05:07:07;4.00;;;2.50;;
39918;SDS011;25589;51.552;13.424;2023-05-10T05:09:32;3.03;;;2.58;;
39918;SDS011;25589;51.552;13.424;2023-05-10T05:11:58;4.72;;;2.55;;
39918;SDS011;25589;51.552;13.424;2023-05-10T05:14:24;2.45;;;2.25;;
39918;SDS011;25589;51.552;13.424;2023-05-10T05:16:50;2.70;;;2.28;;
39918;SDS011;25589;51.552;13.424;2023-05-10T05:19:16;2.53;;;2.03;;
39918;SDS011;25589;51.552;13.424;2023-05-10T05:21:42;3.97;;;2.03;;
39918;SDS011;25589;51.552;13.424;2023-05-10T05:24:08;2.65;;;2.08;;
39918;SDS011;25589;51.552;13.424;2023-05-10T05:26:35;2.72;;;2.45;;
39918;SDS011;25589;51.552;13.424;2023-05-10T05:29:01;3.70;;;2.15;;
39918;SDS011;25589;51.552;13.424;2023-05-10T05:31:27;2.53;;;2.25;;
39918;SDS011;25589;51.552;13.424;2023-05-10T05:33:52;2.30;;;2.05;;
39918;SDS011;25589;51.552;13.424;2023-05-10T05:36:18;4.20;;;2.05;;
39918;SDS011;25589;51.552;13.424;2023-05-10T05:38:43;17.10;;;2.58;;
39918;SDS011;25589;51.552;13.424;2023-05-10T05:41:09;2.65;;;2.05;;
39918;SDS011;25589;51.552;13.424;2023-05-10T05:43:34;4.22;;;2.15;;
39918;SDS011;25589;51.552;13.424;2023-05-10T05:46:00;3.05;;;2.30;;
39918;SDS011;25589;51.552;13.424;2023-05-10T05:48:25;2.58;;;1.90;;
39918;SDS011;25589;51.552;13.424;2023-05-10T05:50:54;2.30;;;2.10;;
39918;SDS011;25589;51.552;13.424;2023-05-10T05:53:21;3.33;;;1.80;;
39918;SDS011;25589;51.552;13.424;2023-05-10T05:55:56;2.20;;;1.65;;
39918;SDS011;25589;51.552;13.424;2023-05-10T05:58:23;4.10;;;1.92;;
39918;SDS011;25589;51.552;13.424;2023-05-10T06:00:50;3.90;;;2.10;;
39918;SDS011;25589;51.552;13.424;2023-05-10T06:03:19;2.78;;;2.08;;
39918;SDS011;25589;51.552;13.424;2023-05-10T06:05:45;4.18;;;2.42;;
39918;SDS011;25589;51.552;13.424;2023-05-10T06:08:11;3.90;;;2.30;;
39918;SDS011;25589;51.552;13.424;2023-05-10T06:10:36;6.07;;;1.95;;
39918;SDS011;25589;51.552;13.424;2023-05-10T06:13:02;1.90;;;1.73;;
39918;SDS011;25589;51.552;13.424;2023-05-10T06:15:28;3.92;;;2.03;;
39918;SDS011;25589;51.552;13.424;2023-05-10T06:17:53;3.60;;;1.90;;
39918;SDS011;25589;51.552;13.424;2023-05-10T06:20:19;5.22;;;1.90;;
39918;SDS011;25589;51.552;13.424;2023-05-10T06:22:45;4.13;;;2.35;;
39918;SDS011;25589;51.552;13.424;2023-05-10T06:25:10;3.90;;;1.77;;
39918;SDS011;25589;51.552;13.424;2023-05-10T06:27:36;2.63;;;2.20;;
39918;SDS011;25589;51.552;13.424;2023-05-10T06:30:02;2.97;;;2.10;;
39918;SDS011;25589;51.552;13.424;2023-05-10T06:32:28;2.50;;;1.85;;
39918;SDS011;25589;51.552;13.424;2023-05-10T06:34:53;5.97;;;1.95;;
39918;SDS011;25589;51.552;13.424;2023-05-10T06:37:19;3.60;;;2.40;;
39918;SDS011;25589;51.552;13.424;2023-05-10T06:39:45;3.30;;;1.80;;
39918;SDS011;25589;51.552;13.424;2023-05-10T06:42:10;2.65;;;2.03;;
39918;SDS011;25589;51.552;13.424;2023-05-10T06:44:36;3.40;;;2.20;;
39918;SDS011;25589;51.552;13.424;2023-05-10T06:47:02;4.00;;;2.00;;
39918;SDS011;25589;51.552;13.424;2023-05-10T06:49:28;6.05;;;2.17;;
39918;SDS011;25589;51.552;13.424;2023-05-10T06:51:55;2.70;;;2.28;;
39918;SDS011;25589;51.552;13.424;2023-05-10T06:54:20;2.50;;;2.08;;
39918;SDS011;25589;51.552;13.424;2023-05-10T06:56:46;5.22;;;2.20;;
39918;SDS011;25589;51.552;13.424;2023-05-10T06:59:11;1.85;;;1.75;;
39918;SDS011;25589;51.552;13.424;2023-05-10T07:01:38;4.03;;;2.10;;
39918;SDS011;25589;51.552;13.424;2023-05-10T07:04:05;4.82;;;2.03;;
39918;SDS011;25589;51.552;13.424;2023-05-10T07:06:32;4.38;;;2.17;;
39918;SDS011;25589;51.552;13.424;2023-05-10T07:08:58;2.85;;;1.90;;
39918;SDS011;25589;51.552;13.424;2023-05-10T07:11:24;2.85;;;2.35;;
39918;SDS011;25589;51.552;13.424;2023-05-10T07:13:49;3.10;;;1.85;;
39918;SDS011;25589;51.552;13.424;2023-05-10T07:16:15;2.97;;;2.08;;
39918;SDS011;25589;51.552;13.424;2023-05-10T07:18:40;3.40;;;1.90;;
39918;SDS011;25589;51.552;13.424;2023-05-10T07:21:06;3.92;;;2.13;;
39918;SDS011;25589;51.552;13.424;2023-05-10T07:23:32;2.35;;;2.03;;
39918;SDS011;25589;51.552;13.424;2023-05-10T07:25:57;2.42;;;2.20;;
39918;SDS011;25589;51.552;13.424;2023-05-10T07:28:23;2.65;;;2.38;;
39918;SDS011;25589;51.552;13.424;2023-05-10T07:30:51;2.97;;;2.28;;
39918;SDS011;25589;51.552;13.424;2023-05-10T07:33:17;3.95;;;2.67;;
39918;SDS011;25589;51.552;13.424;2023-05-10T07:35:43;2.47;;;2.28;;
39918;SDS011;25589;51.552;13.424;2023-05-10T07:38:08;3.03;;;2.30;;
39918;SDS011;25589;51.552;13.424;2023-05-10T07:40:36;3.33;;;2.15;;
39918;SDS011;25589;51.552;13.424;2023-05-10T07:43:01;8.25;;;3.10;;
39918;SDS011;25589;51.552;13.424;2023-05-10T07:45:27;4.53;;;2.50;;
39918;SDS011;25589;51.552;13.424;2023-05-10T07:47:53;4.03;;;2.40;;
39918;SDS011;25589;51.552;13.424;2023-05-10T07:50:19;6.15;;;2.70;;
39918;SDS011;25589;51.552;13.424;2023-05-10T07:52:46;3.67;;;2.28;;
39918;SDS011;25589;51.552;13.424;2023-05-10T07:55:11;3.53;;;2.25;;
39918;SDS011;25589;51.552;13.424;2023-05-10T07:57:37;2.50;;;2.30;;
39918;SDS011;25589;51.552;13.424;2023-05-10T08:00:15;2.55;;;2.35;;
39918;SDS011;25589;51.552;13.424;2023-05-10T08:02:45;3.70;;;2.30;;
39918;SDS011;25589;51.552;13.424;2023-05-10T08:05:11;3.03;;;2.08;;
39918;SDS011;25589;51.552;13.424;2023-05-10T08:07:36;3.40;;;2.33;;
39918;SDS011;25589;51.552;13.424;2023-05-10T08:10:02;3.83;;;2.22;;
39918;SDS011;25589;51.552;13.424;2023-05-10T08:12:28;4.05;;;2.30;;
39918;SDS011;25589;51.552;13.424;2023-05-10T08:14:54;2.70;;;2.28;;
39918;SDS011;25589;51.552;13.424;2023-05-10T08:17:19;4.65;;;2.33;;
39918;SDS011;25589;51.552;13.424;2023-05-10T08:19:45;3.67;;;2.63;;
39918;SDS011;25589;51.552;13.424;2023-05-10T08:22:10;3.83;;;2.15;;
39918;SDS011;25589;51.552;13.424;2023-05-10T08:24:36;2.65;;;2.08;;
39918;SDS011;25589;51.552;13.424;2023-05-10T08:27:04;3.65;;;2.78;;
39918;SDS011;25589;51.552;13.424;2023-05-10T08:29:30;6.35;;;2.30;;
39918;SDS011;25589;51.552;13.424;2023-05-10T08:31:56;5.60;;;2.50;;
39918;SDS011;25589;51.552;13.424;2023-05-10T08:34:21;3.05;;;2.40;;
39918;SDS011;25589;51.552;13.424;2023-05-10T08:36:47;3.05;;;2.53;;
39918;SDS011;25589;51.552;13.424;2023-05-10T08:39:12;2.38;;;2.17;;
39918;SDS011;25589;51.552;13.424;2023-05-10T08:41:39;3.38;;;2.20;;
39918;SDS011;25589;51.552;13.424;2023-05-10T08:44:05;2.53;;;2.30;;
39918;SDS011;25589;51.552;13.424;2023-05-10T08:46:33;5.75;;;2.33;;
39918;SDS011;25589;51.552;13.424;2023-05-10T08:49:03;3.30;;;2.53;;
39918;SDS011;25589;51.552;13.424;2023-05-10T08:51:31;3.88;;;2.50;;
39918;SDS011;25589;51.552;13.424;2023-05-10T08:54:01;4.20;;;2.10;;
39918;SDS011;25589;51.552;13.424;2023-05-10T08:56:28;2.70;;;2.47;;
39918;SDS011;25589;51.552;13.424;2023-05-10T08:58:54;3.00;;;2.67;;
39918;SDS011;25589;51.552;13.424;2023-05-10T09:01:20;3.60;;;2.45;;
39918;SDS011;25589;51.552;13.424;2023-05-10T09:03:46;3.17;;;2.35;;
39918;SDS011;25589;51.552;13.424;2023-05-10T09:06:13;4.57;;;2.65;;
39918;SDS011;25589;51.552;13.424;2023-05-10T09:08:39;2.40;;;2.20;;
39918;SDS011;25589;51.552;13.424;2023-05-10T09:11:06;2.67;;;2.47;;
39918;SDS011;25589;51.552;13.424;2023-05-10T09:13:33;2.58;;;2.38;;
39918;SDS011;25589;51.552;13.424;2023-05-10T09:16:00;5.07;;;2.72;;
39918;SDS011;25589;51.552;13.424;2023-05-10T09:18:27;3.40;;;2.35;;
39918;SDS011;25589;51.552;13.424;2023-05-10T09:20:53;6.82;;;2.20;;
39918;SDS011;25589;51.552;13.424;2023-05-10T09:23:19;2.35;;;2.15;;
39918;SDS011;25589;51.552;13.424;2023-05-10T09:25:45;5.38;;;2.35;;
39918;SDS011;25589;51.552;13.424;2023-05-10T09:28:11;2.80;;;2.17;;
39918;SDS011;25589;51.552;13.424;2023-05-10T09:30:36;2.50;;;2.20;;
39918;SDS011;25589;51.552;13.424;2023-05-10T09:33:02;3.80;;;2.72;;
39918;SDS011;25589;51.552;13.424;2023-05-10T09:35:29;3.22;;;2.63;;
39918;SDS011;25589;51.552;13.424;2023-05-10T09:38:00;4.93;;;2.72;;
39918;SDS011;25589;51.552;13.424;2023-05-10T09:40:28;3.40;;;2.70;;
39918;SDS011;25589;51.552;13.424;2023-05-10T09:43:02;4.18;;;3.22;;
39918;SDS011;25589;51.552;13.424;2023-05-10T09:45:34;3.28;;;2.95;;
39918;SDS011;25589;51.552;13.424;2023-05-10T09:48:01;4.90;;;3.13;;
39918;SDS011;25589;51.552;13.424;2023-05-10T09:50:27;4.25;;;3.55;;
39918;SDS011;25589;51.552;13.424;2023-05-10T09:55:44;4.60;;;2.85;;
39918;SDS011;25589;51.552;13.424;2023-05-10T09:58:11;3.70;;;2.85;;
39918;SDS011;25589;51.552;13.424;2023-05-10T10:00:41;3.05;;;2.75;;
39918;SDS011;25589;51.552;13.424;2023-05-10T10:03:12;4.65;;;3.10;;
39918;SDS011;25589;51.552;13.424;2023-05-10T10:05:42;3.80;;;3.10;;
39918;SDS011;25589;51.552;13.424;2023-05-10T10:08:09;5.03;;;2.90;;
39918;SDS011;25589;51.552;13.424;2023-05-10T10:10:35;2.88;;;2.60;;
39918;SDS011;25589;51.552;13.424;2023-05-10T10:13:01;5.00;;;3.05;;
39918;SDS011;25589;51.552;13.424;2023-05-10T10:15:27;4.53;;;3.30;;
39918;SDS011;25589;51.552;13.424;2023-05-10T10:17:53;3.47;;;2.95;;
39918;SDS011;25589;51.552;13.424;2023-05-10T10:20:19;4.70;;;3.35;;
39918;SDS011;25589;51.552;13.424;2023-05-10T10:22:47;3.67;;;3.28;;
39918;SDS011;25589;51.552;13.424;2023-05-10T10:25:13;3.20;;;2.90;;
39918;SDS011;25589;51.552;13.424;2023-05-10T10:30:18;2.88;;;2.60;;
39918;SDS011;25589;51.552;13.424;2023-05-10T10:33:01;4.40;;;2.97;;
39918;SDS011;25589;51.552;13.424;2023-05-10T10:35:50;5.40;;;3.17;;
39918;SDS011;25589;51.552;13.424;2023-05-10T10:38:18;4.35;;;3.13;;
39918;SDS011;25589;51.552;13.424;2023-05-10T10:40:43;4.22;;;2.97;;
39918;SDS011;25589;51.552;13.424;2023-05-10T10:46:10;3.55;;;2.97;;
39918;SDS011;25589;51.552;13.424;2023-05-10T10:48:38;3.95;;;2.95;;
39918;SDS011;25589;51.552;13.424;2023-05-10T10:51:04;4.25;;;2.95;;
39918;SDS011;25589;51.552;13.424;2023-05-10T10:53:30;7.35;;;3.20;;
39918;SDS011;25589;51.552;13.424;2023-05-10T10:56:11;3.50;;;2.75;;
39918;SDS011;25589;51.552;13.424;2023-05-10T11:01:11;4.18;;;3.50;;
39918;SDS011;25589;51.552;13.424;2023-05-10T11:06:02;2.88;;;2.67;;
39918;SDS011;25589;51.552;13.424;2023-05-10T11:08:29;4.18;;;3.00;;
39918;SDS011;25589;51.552;13.424;2023-05-10T11:16:25;3.55;;;2.70;;
39918;SDS011;25589;51.552;13.424;2023-05-10T11:19:10;4.43;;;3.53;;
39918;SDS011;25589;51.552;13.424;2023-05-10T11:21:50;4.97;;;3.35;;
39918;SDS011;25589;51.552;13.424;2023-05-10T11:24:36;4.93;;;3.08;;
39918;SDS011;25589;51.552;13.424;2023-05-10T11:27:01;4.65;;;3.25;;
39918;SDS011;25589;51.552;13.424;2023-05-10T11:29:28;7.45;;;3.40;;
39918;SDS011;25589;51.552;13.424;2023-05-10T11:31:53;3.63;;;3.30;;
39918;SDS011;25589;51.552;13.424;2023-05-10T11:34:23;2.92;;;2.63;;
39918;SDS011;25589;51.552;13.424;2023-05-10T11:36:55;5.38;;;3.30;;
39918;SDS011;25589;51.552;13.424;2023-05-10T11:39:25;4.70;;;3.53;;
39918;SDS011;25589;51.552;13.424;2023-05-10T11:41:54;3.75;;;3.13;;
39918;SDS011;25589;51.552;13.424;2023-05-10T11:44:20;5.05;;;2.95;;
39918;SDS011;25589;51.552;13.424;2023-05-10T11:46:46;4.88;;;3.05;;
39918;SDS011;25589;51.552;13.424;2023-05-10T11:49:12;3.83;;;2.85;;
39918;SDS011;25589;51.552;13.424;2023-05-10T11:51:38;7.90;;;3.35;;
39918;SDS011;25589;51.552;13.424;2023-05-10T11:54:09;5.30;;;3.15;;
39918;SDS011;25589;51.552;13.424;2023-05-10T11:56:36;7.05;;;3.47;;
39918;SDS011;25589;51.552;13.424;2023-05-10T11:59:03;5.43;;;3.40;;
39918;SDS011;25589;51.552;13.424;2023-05-10T12:01:29;3.30;;;2.65;;
39918;SDS011;25589;51.552;13.424;2023-05-10T12:03:56;3.92;;;3.30;;
39918;SDS011;25589;51.552;13.424;2023-05-10T12:06:25;5.05;;;3.15;;
39918;SDS011;25589;51.552;13.424;2023-05-10T12:08:56;6.07;;;3.50;;
39918;SDS011;25589;51.552;13.424;2023-05-10T12:11:24;4.05;;;3.20;;
39918;SDS011;25589;51.552;13.424;2023-05-10T12:13:51;2.75;;;2.55;;
39918;SDS011;25589;51.552;13.424;2023-05-10T12:16:17;6.45;;;2.63;;
39918;SDS011;25589;51.552;13.424;2023-05-10T12:18:44;5.20;;;2.70;;
39918;SDS011;25589;51.552;13.424;2023-05-10T12:21:12;4.60;;;3.50;;
39918;SDS011;25589;51.552;13.424;2023-05-10T12:23:40;5.15;;;3.40;;
39918;SDS011;25589;51.552;13.424;2023-05-10T12:26:06;3.30;;;2.80;;
39918;SDS011;25589;51.552;13.424;2023-05-10T12:28:34;6.07;;;4.50;;
39918;SDS011;25589;51.552;13.424;2023-05-10T12:31:00;4.32;;;3.90;;
39918;SDS011;25589;51.552;13.424;2023-05-10T12:33:26;4.10;;;3.63;;
39918;SDS011;25589;51.552;13.424;2023-05-10T12:35:53;10.27;;;3.90;;
39918;SDS011;25589;51.552;13.424;2023-05-10T12:38:32;4.18;;;3.78;;
39918;SDS011;25589;51.552;13.424;2023-05-10T12:41:00;4.82;;;3.53;;
39918;SDS011;25589;51.552;13.424;2023-05-10T12:43:26;6.05;;;3.80;;
39918;SDS011;25589;51.552;13.424;2023-05-10T12:45:52;5.43;;;3.88;;
39918;SDS011;25589;51.552;13.424;2023-05-10T12:48:18;5.00;;;3.92;;
39918;SDS011;25589;51.552;13.424;2023-05-10T12:50:44;4.10;;;3.70;;
39918;SDS011;25589;51.552;13.424;2023-05-10T12:53:10;4.72;;;3.80;;
39918;SDS011;25589;51.552;13.424;2023-05-10T12:55:36;3.58;;;3.28;;
39918;SDS011;25589;51.552;13.424;2023-05-10T12:58:01;4.10;;;3.70;;
39918;SDS011;25589;51.552;13.424;2023-05-10T13:00:27;6.25;;;3.35;;
39918;SDS011;25589;51.552;13.424;2023-05-10T13:02:53;4.93;;;3.70;;
39918;SDS011;25589;51.552;13.424;2023-05-10T13:05:19;3.53;;;3.22;;
39918;SDS011;25589;51.552;13.424;2023-05-10T13:07:44;3.70;;;3.20;;
39918;SDS011;25589;51.552;13.424;2023-05-10T13:10:10;5.55;;;3.42;;
39918;SDS011;25589;51.552;13.424;2023-05-10T13:12:36;4.53;;;3.30;;
39918;SDS011;25589;51.552;13.424;2023-05-10T13:15:02;4.13;;;3.30;;
39918;SDS011;25589;51.552;13.424;2023-05-10T13:17:28;5.85;;;3.17;;
39918;SDS011;25589;51.552;13.424;2023-05-10T13:19:54;4.35;;;3.50;;
39918;SDS011;25589;51.552;13.424;2023-05-10T13:22:20;4.80;;;2.92;;
39918;SDS011;25589;51.552;13.424;2023-05-10T13:24:45;3.85;;;3.22;;
39918;SDS011;25589;51.552;13.424;2023-05-10T13:27:11;5.18;;;3.22;;
39918;SDS011;25589;51.552;13.424;2023-05-10T13:29:36;5.63;;;3.70;;
39918;SDS011;25589;51.552;13.424;2023-05-10T13:32:02;3.03;;;2.78;;
39918;SDS011;25589;51.552;13.424;2023-05-10T13:34:29;4.45;;;3.35;;
39918;SDS011;25589;51.552;13.424;2023-05-10T13:36:54;3.50;;;3.20;;
39918;SDS011;25589;51.552;13.424;2023-05-10T13:39:21;2.85;;;2.55;;
39918;SDS011;25589;51.552;13.424;2023-05-10T13:41:47;4.18;;;3.05;;
39918;SDS011;25589;51.552;13.424;2023-05-10T13:44:13;4.97;;;3.70;;
39918;SDS011;25589;51.552;13.424;2023-05-10T13:46:40;6.13;;;3.35;;
39918;SDS011;25589;51.552;13.424;2023-05-10T13:49:06;4.78;;;3.70;;
39918;SDS011;25589;51.552;13.424;2023-05-10T13:51:33;6.93;;;3.53;;
39918;SDS011;25589;51.552;13.424;2023-05-10T13:53:58;4.20;;;3.80;;
39918;SDS011;25589;51.552;13.424;2023-05-10T13:56:24;4.70;;;4.07;;
39918;SDS011;25589;51.552;13.424;2023-05-10T13:58:49;4.28;;;3.88;;
39918;SDS011;25589;51.552;13.424;2023-05-10T14:01:15;3.70;;;3.28;;
39918;SDS011;25589;51.552;13.424;2023-05-10T14:03:41;3.90;;;3.47;;
39918;SDS011;25589;51.552;13.424;2023-05-10T14:06:06;4.63;;;3.47;;
39918;SDS011;25589;51.552;13.424;2023-05-10T14:08:32;4.72;;;4.22;;
39918;SDS011;25589;51.552;13.424;2023-05-10T14:10:59;5.72;;;3.47;;
39918;SDS011;25589;51.552;13.424;2023-05-10T14:13:25;5.57;;;3.80;;
39918;SDS011;25589;51.552;13.424;2023-05-10T14:15:50;4.22;;;3.40;;
39918;SDS011;25589;51.552;13.424;2023-05-10T14:18:17;4.60;;;3.45;;
39918;SDS011;25589;51.552;13.424;2023-05-10T14:20:42;4.05;;;3.05;;
39918;SDS011;25589;51.552;13.424;2023-05-10T14:23:08;3.88;;;3.35;;
39918;SDS011;25589;51.552;13.424;2023-05-10T14:25:34;5.57;;;3.50;;
39918;SDS011;25589;51.552;13.424;2023-05-10T14:27:59;6.18;;;3.58;;
39918;SDS011;25589;51.552;13.424;2023-05-10T14:30:25;6.70;;;3.58;;
39918;SDS011;25589;51.552;13.424;2023-05-10T14:32:51;4.90;;;3.65;;
39918;SDS011;25589;51.552;13.424;2023-05-10T14:35:19;12.63;;;3.72;;
39918;SDS011;25589;51.552;13.424;2023-05-10T14:37:44;6.03;;;3.60;;
39918;SDS011;25589;51.552;13.424;2023-05-10T14:40:10;5.35;;;3.20;;
39918;SDS011;25589;51.552;13.424;2023-05-10T14:42:36;5.63;;;4.13;;
39918;SDS011;25589;51.552;13.424;2023-05-10T14:45:02;4.78;;;3.97;;
39918;SDS011;25589;51.552;13.424;2023-05-10T14:47:28;4.80;;;4.10;;
39918;SDS011;25589;51.552;13.424;2023-05-10T14:49:54;4.57;;;3.85;;
39918;SDS011;25589;51.552;13.424;2023-05-10T14:52:19;4.72;;;3.67;;
39918;SDS011;25589;51.552;13.424;2023-05-10T14:54:45;4.88;;;3.72;;
39918;SDS011;25589;51.552;13.424;2023-05-10T14:57:11;4.55;;;3.67;;
39918;SDS011;25589;51.552;13.424;2023-05-10T14:59:36;4.38;;;3.38;;
39918;SDS011;25589;51.552;13.424;2023-05-10T15:02:02;3.28;;;2.95;;
39918;SDS011;25589;51.552;13.424;2023-05-10T15:04:29;4.07;;;3.03;;
39918;SDS011;25589;51.552;13.424;2023-05-10T15:06:55;3.78;;;2.83;;
39918;SDS011;25589;51.552;13.424;2023-05-10T15:09:24;3.88;;;2.55;;